sensor_id;sensor_type;location;lat;lon;timestamp;P1;durP1;ratioP1;P2;durP2;ratioP2
76125;SDS011;65174;48.138;21.002;2023-11-22T00:02:12;22.83;;;9.10;;
76125;SDS011;65174;48.138;21.002;2023-11-22T00:05:13;34.25;;;13.05;;
76125;SDS011;65174;48.138;21.002;2023-11-22T00:08:15;19.17;;;11.07;;
76125;SDS011;65174;48.138;21.002;2023-11-22T00:11:17;35.67;;;13.57;;
76125;SDS011;65174;48.138;21.002;2023-11-22T00:14:19;32.95;;;13.07;;
76125;SDS011;65174;48.138;21.002;2023-11-22T00:17:21;34.10;;;13.68;;
76125;SDS011;65174;48.138;21.002;2023-11-22T00:20:23;28.77;;;11.52;;
76125;SDS011;65174;48.138;21.002;2023-11-22T00:23:25;24.00;;;10.50;;
76125;SDS011;65174;48.138;21.002;2023-11-22T00:26:30;28.43;;;9.47;;
76125;SDS011;65174;48.138;21.002;2023-11-22T00:29:34;31.45;;;11.90;;
76125;SDS011;65174;48.138;21.002;2023-11-22T00:32:35;27.38;;;10.32;;
76125;SDS011;65174;48.138;21.002;2023-11-22T00:35:37;26.92;;;10.68;;
76125;SDS011;65174;48.138;21.002;2023-11-22T00:38:39;17.37;;;6.83;;
76125;SDS011;65174;48.138;21.002;2023-11-22T00:41:41;34.00;;;15.07;;
76125;SDS011;65174;48.138;21.002;2023-11-22T00:44:43;19.05;;;7.50;;
76125;SDS011;65174;48.138;21.002;2023-11-22T00:47:45;32.30;;;12.27;;
76125;SDS011;65174;48.138;21.002;2023-11-22T00:50:47;18.92;;;9.55;;
76125;SDS011;65174;48.138;21.002;2023-11-22T00:53:49;29.33;;;11.00;;
76125;SDS011;65174;48.138;21.002;2023-11-22T00:56:51;24.57;;;9.50;;
76125;SDS011;65174;48.138;21.002;2023-11-22T00:59:53;24.50;;;11.27;;
76125;SDS011;65174;48.138;21.002;2023-11-22T01:02:55;28.92;;;11.98;;
76125;SDS011;65174;48.138;21.002;2023-11-22T01:05:57;19.42;;;8.27;;
76125;SDS011;65174;48.138;21.002;2023-11-22T01:08:59;30.47;;;11.60;;
76125;SDS011;65174;48.138;21.002;2023-11-22T01:12:01;35.57;;;13.40;;
76125;SDS011;65174;48.138;21.002;2023-11-22T01:15:03;27.67;;;9.93;;
76125;SDS011;65174;48.138;21.002;2023-11-22T01:18:06;30.25;;;12.10;;
76125;SDS011;65174;48.138;21.002;2023-11-22T01:21:08;46.22;;;15.77;;
76125;SDS011;65174;48.138;21.002;2023-11-22T01:24:09;52.30;;;16.33;;
76125;SDS011;65174;48.138;21.002;2023-11-22T01:27:11;27.57;;;11.27;;
76125;SDS011;65174;48.138;21.002;2023-11-22T01:30:13;45.10;;;16.33;;
76125;SDS011;65174;48.138;21.002;2023-11-22T01:33:17;43.22;;;14.77;;
76125;SDS011;65174;48.138;21.002;2023-11-22T01:36:19;40.95;;;13.60;;
76125;SDS011;65174;48.138;21.002;2023-11-22T01:39:21;43.80;;;15.60;;
76125;SDS011;65174;48.138;21.002;2023-11-22T01:42:23;47.90;;;17.37;;
76125;SDS011;65174;48.138;21.002;2023-11-22T01:45:26;39.40;;;14.18;;
76125;SDS011;65174;48.138;21.002;2023-11-22T01:48:28;46.80;;;16.20;;
76125;SDS011;65174;48.138;21.002;2023-11-22T01:51:30;36.25;;;14.02;;
76125;SDS011;65174;48.138;21.002;2023-11-22T01:54:32;40.90;;;13.60;;
76125;SDS011;65174;48.138;21.002;2023-11-22T01:57:35;32.70;;;13.60;;
76125;SDS011;65174;48.138;21.002;2023-11-22T02:00:49;40.35;;;14.85;;
76125;SDS011;65174;48.138;21.002;2023-11-22T02:03:51;50.25;;;16.60;;
76125;SDS011;65174;48.138;21.002;2023-11-22T02:06:55;57.40;;;17.60;;
76125;SDS011;65174;48.138;21.002;2023-11-22T02:10:00;32.87;;;11.77;;
76125;SDS011;65174;48.138;21.002;2023-11-22T02:13:05;41.67;;;15.73;;
76125;SDS011;65174;48.138;21.002;2023-11-22T02:16:09;28.60;;;9.98;;
76125;SDS011;65174;48.138;21.002;2023-11-22T02:19:13;41.72;;;14.18;;
76125;SDS011;65174;48.138;21.002;2023-11-22T02:22:15;45.63;;;15.80;;
76125;SDS011;65174;48.138;21.002;2023-11-22T02:25:18;42.83;;;15.57;;
76125;SDS011;65174;48.138;21.002;2023-11-22T02:28:21;38.80;;;15.20;;
76125;SDS011;65174;48.138;21.002;2023-11-22T02:31:22;52.15;;;17.30;;
76125;SDS011;65174;48.138;21.002;2023-11-22T02:34:25;47.95;;;15.20;;
76125;SDS011;65174;48.138;21.002;2023-11-22T02:37:27;41.78;;;15.20;;
76125;SDS011;65174;48.138;21.002;2023-11-22T02:40:29;27.37;;;11.37;;
76125;SDS011;65174;48.138;21.002;2023-11-22T02:43:31;38.23;;;13.63;;
76125;SDS011;65174;48.138;21.002;2023-11-22T02:46:32;30.83;;;12.70;;
76125;SDS011;65174;48.138;21.002;2023-11-22T02:49:35;27.70;;;12.05;;
76125;SDS011;65174;48.138;21.002;2023-11-22T02:52:37;17.83;;;10.68;;
76125;SDS011;65174;48.138;21.002;2023-11-22T02:55:39;34.73;;;14.73;;
76125;SDS011;65174;48.138;21.002;2023-11-22T02:58:41;39.90;;;13.40;;
76125;SDS011;65174;48.138;21.002;2023-11-22T03:01:43;34.08;;;12.27;;
76125;SDS011;65174;48.138;21.002;2023-11-22T03:04:47;34.40;;;15.13;;
76125;SDS011;65174;48.138;21.002;2023-11-22T03:07:50;24.95;;;12.07;;
76125;SDS011;65174;48.138;21.002;2023-11-22T03:10:53;27.43;;;11.07;;
76125;SDS011;65174;48.138;21.002;2023-11-22T03:13:55;25.90;;;10.57;;
76125;SDS011;65174;48.138;21.002;2023-11-22T03:16:57;18.00;;;8.65;;
76125;SDS011;65174;48.138;21.002;2023-11-22T03:19:59;20.02;;;7.72;;
76125;SDS011;65174;48.138;21.002;2023-11-22T03:23:02;13.57;;;8.38;;
76125;SDS011;65174;48.138;21.002;2023-11-22T03:26:04;25.80;;;11.07;;
76125;SDS011;65174;48.138;21.002;2023-11-22T03:29:06;29.63;;;13.97;;
76125;SDS011;65174;48.138;21.002;2023-11-22T03:32:08;26.25;;;12.02;;
76125;SDS011;65174;48.138;21.002;2023-11-22T03:35:10;21.90;;;8.32;;
76125;SDS011;65174;48.138;21.002;2023-11-22T03:38:12;31.20;;;11.43;;
76125;SDS011;65174;48.138;21.002;2023-11-22T03:41:14;27.40;;;12.07;;
76125;SDS011;65174;48.138;21.002;2023-11-22T03:44:16;17.20;;;10.17;;
76125;SDS011;65174;48.138;21.002;2023-11-22T03:47:17;16.85;;;8.68;;
76125;SDS011;65174;48.138;21.002;2023-11-22T03:50:20;28.60;;;11.20;;
76125;SDS011;65174;48.138;21.002;2023-11-22T03:53:22;22.38;;;11.55;;
76125;SDS011;65174;48.138;21.002;2023-11-22T03:56:24;16.90;;;8.13;;
76125;SDS011;65174;48.138;21.002;2023-11-22T03:59:26;13.50;;;8.60;;
76125;SDS011;65174;48.138;21.002;2023-11-22T04:02:28;16.98;;;8.85;;
76125;SDS011;65174;48.138;21.002;2023-11-22T04:05:31;12.88;;;6.30;;
76125;SDS011;65174;48.138;21.002;2023-11-22T04:08:33;14.85;;;8.10;;
76125;SDS011;65174;48.138;21.002;2023-11-22T04:11:35;12.95;;;6.70;;
76125;SDS011;65174;48.138;21.002;2023-11-22T04:14:37;19.47;;;9.13;;
76125;SDS011;65174;48.138;21.002;2023-11-22T04:17:40;13.68;;;6.38;;
76125;SDS011;65174;48.138;21.002;2023-11-22T04:20:42;10.38;;;6.25;;
76125;SDS011;65174;48.138;21.002;2023-11-22T04:23:44;7.18;;;4.72;;
76125;SDS011;65174;48.138;21.002;2023-11-22T04:26:46;16.17;;;7.17;;
76125;SDS011;65174;48.138;21.002;2023-11-22T04:29:49;10.07;;;5.00;;
76125;SDS011;65174;48.138;21.002;2023-11-22T04:32:51;8.15;;;5.10;;
76125;SDS011;65174;48.138;21.002;2023-11-22T04:35:53;9.80;;;5.88;;
76125;SDS011;65174;48.138;21.002;2023-11-22T04:38:55;9.60;;;5.63;;
76125;SDS011;65174;48.138;21.002;2023-11-22T04:41:57;8.27;;;5.05;;
76125;SDS011;65174;48.138;21.002;2023-11-22T04:44:59;5.63;;;3.53;;
76125;SDS011;65174;48.138;21.002;2023-11-22T04:48:01;3.80;;;2.72;;
76125;SDS011;65174;48.138;21.002;2023-11-22T04:51:03;6.22;;;3.38;;
76125;SDS011;65174;48.138;21.002;2023-11-22T04:54:05;3.10;;;2.33;;
76125;SDS011;65174;48.138;21.002;2023-11-22T04:57:06;4.07;;;3.13;;
76125;SDS011;65174;48.138;21.002;2023-11-22T05:00:08;5.33;;;3.27;;
76125;SDS011;65174;48.138;21.002;2023-11-22T05:03:10;3.88;;;2.80;;
76125;SDS011;65174;48.138;21.002;2023-11-22T05:06:13;3.85;;;2.53;;
76125;SDS011;65174;48.138;21.002;2023-11-22T05:09:15;3.42;;;2.53;;
76125;SDS011;65174;48.138;21.002;2023-11-22T05:12:19;4.63;;;2.80;;
76125;SDS011;65174;48.138;21.002;2023-11-22T05:15:21;2.77;;;2.13;;
76125;SDS011;65174;48.138;21.002;2023-11-22T05:18:23;6.22;;;2.38;;
76125;SDS011;65174;48.138;21.002;2023-11-22T05:21:24;1.75;;;1.52;;
76125;SDS011;65174;48.138;21.002;2023-11-22T05:24:26;2.28;;;1.77;;
76125;SDS011;65174;48.138;21.002;2023-11-22T05:27:28;3.57;;;2.43;;
76125;SDS011;65174;48.138;21.002;2023-11-22T05:30:30;1.40;;;1.23;;
76125;SDS011;65174;48.138;21.002;2023-11-22T05:33:32;3.45;;;2.60;;
76125;SDS011;65174;48.138;21.002;2023-11-22T05:36:34;2.20;;;1.70;;
76125;SDS011;65174;48.138;21.002;2023-11-22T05:39:36;2.60;;;1.90;;
76125;SDS011;65174;48.138;21.002;2023-11-22T05:42:38;11.52;;;4.18;;
76125;SDS011;65174;48.138;21.002;2023-11-22T05:45:40;4.97;;;2.20;;
76125;SDS011;65174;48.138;21.002;2023-11-22T05:48:42;2.28;;;1.92;;
76125;SDS011;65174;48.138;21.002;2023-11-22T05:51:43;3.00;;;1.98;;
76125;SDS011;65174;48.138;21.002;2023-11-22T05:54:45;2.58;;;1.80;;
76125;SDS011;65174;48.138;21.002;2023-11-22T05:57:48;1.97;;;1.53;;
76125;SDS011;65174;48.138;21.002;2023-11-22T06:00:50;3.27;;;2.23;;
76125;SDS011;65174;48.138;21.002;2023-11-22T06:03:52;1.38;;;1.15;;
76125;SDS011;65174;48.138;21.002;2023-11-22T06:06:54;1.73;;;1.45;;
76125;SDS011;65174;48.138;21.002;2023-11-22T06:09:56;2.70;;;1.67;;
76125;SDS011;65174;48.138;21.002;2023-11-22T06:12:58;2.17;;;1.20;;
76125;SDS011;65174;48.138;21.002;2023-11-22T06:16:00;2.73;;;1.73;;
76125;SDS011;65174;48.138;21.002;2023-11-22T06:19:02;2.10;;;1.58;;
76125;SDS011;65174;48.138;21.002;2023-11-22T06:22:04;2.67;;;1.45;;
76125;SDS011;65174;48.138;21.002;2023-11-22T06:25:07;2.67;;;1.42;;
76125;SDS011;65174;48.138;21.002;2023-11-22T06:28:09;1.13;;;1.00;;
76125;SDS011;65174;48.138;21.002;2023-11-22T06:31:11;1.77;;;1.47;;
76125;SDS011;65174;48.138;21.002;2023-11-22T06:34:13;3.63;;;1.63;;
76125;SDS011;65174;48.138;21.002;2023-11-22T06:37:15;1.50;;;1.02;;
76125;SDS011;65174;48.138;21.002;2023-11-22T06:40:17;3.03;;;1.65;;
76125;SDS011;65174;48.138;21.002;2023-11-22T06:43:19;2.77;;;1.90;;
76125;SDS011;65174;48.138;21.002;2023-11-22T06:46:21;2.77;;;2.00;;
76125;SDS011;65174;48.138;21.002;2023-11-22T06:49:24;1.80;;;1.60;;
76125;SDS011;65174;48.138;21.002;2023-11-22T06:52:26;2.72;;;2.35;;
76125;SDS011;65174;48.138;21.002;2023-11-22T06:55:28;2.25;;;1.85;;
76125;SDS011;65174;48.138;21.002;2023-11-22T06:58:30;1.70;;;1.53;;
76125;SDS011;65174;48.138;21.002;2023-11-22T07:01:32;2.63;;;2.20;;
76125;SDS011;65174;48.138;21.002;2023-11-22T07:04:34;2.95;;;1.98;;
76125;SDS011;65174;48.138;21.002;2023-11-22T07:07:37;3.53;;;2.42;;
76125;SDS011;65174;48.138;21.002;2023-11-22T07:10:39;4.10;;;3.55;;
76125;SDS011;65174;48.138;21.002;2023-11-22T07:13:40;10.57;;;4.27;;
76125;SDS011;65174;48.138;21.002;2023-11-22T07:16:42;4.37;;;2.87;;
76125;SDS011;65174;48.138;21.002;2023-11-22T07:19:44;3.63;;;2.05;;
76125;SDS011;65174;48.138;21.002;2023-11-22T07:22:49;3.50;;;2.25;;
76125;SDS011;65174;48.138;21.002;2023-11-22T07:25:57;2.20;;;1.92;;
76125;SDS011;65174;48.138;21.002;2023-11-22T07:29:01;3.60;;;2.73;;
76125;SDS011;65174;48.138;21.002;2023-11-22T07:32:03;3.63;;;2.87;;
76125;SDS011;65174;48.138;21.002;2023-11-22T07:35:06;5.45;;;3.40;;
76125;SDS011;65174;48.138;21.002;2023-11-22T07:38:10;3.33;;;3.00;;
76125;SDS011;65174;48.138;21.002;2023-11-22T07:41:13;2.92;;;2.28;;
76125;SDS011;65174;48.138;21.002;2023-11-22T07:44:15;5.20;;;2.77;;
76125;SDS011;65174;48.138;21.002;2023-11-22T07:47:16;4.40;;;3.23;;
76125;SDS011;65174;48.138;21.002;2023-11-22T07:50:18;2.25;;;1.98;;
76125;SDS011;65174;48.138;21.002;2023-11-22T07:53:21;4.70;;;2.72;;
76125;SDS011;65174;48.138;21.002;2023-11-22T07:56:23;4.60;;;2.72;;
76125;SDS011;65174;48.138;21.002;2023-11-22T07:59:25;4.27;;;3.17;;
76125;SDS011;65174;48.138;21.002;2023-11-22T08:02:27;3.67;;;2.23;;
76125;SDS011;65174;48.138;21.002;2023-11-22T08:05:30;3.08;;;2.72;;
76125;SDS011;65174;48.138;21.002;2023-11-22T08:08:36;5.70;;;4.15;;
76125;SDS011;65174;48.138;21.002;2023-11-22T08:11:41;4.18;;;2.95;;
76125;SDS011;65174;48.138;21.002;2023-11-22T08:14:43;4.03;;;2.77;;
76125;SDS011;65174;48.138;21.002;2023-11-22T08:17:46;4.50;;;3.20;;
76125;SDS011;65174;48.138;21.002;2023-11-22T08:20:48;5.07;;;3.17;;
76125;SDS011;65174;48.138;21.002;2023-11-22T08:23:50;5.32;;;3.95;;
76125;SDS011;65174;48.138;21.002;2023-11-22T08:26:51;5.00;;;3.00;;
76125;SDS011;65174;48.138;21.002;2023-11-22T08:29:53;5.27;;;3.37;;
76125;SDS011;65174;48.138;21.002;2023-11-22T08:32:55;6.13;;;3.93;;
76125;SDS011;65174;48.138;21.002;2023-11-22T08:35:57;3.30;;;2.67;;
76125;SDS011;65174;48.138;21.002;2023-11-22T08:39:02;4.40;;;3.08;;
76125;SDS011;65174;48.138;21.002;2023-11-22T08:42:06;6.65;;;3.95;;
76125;SDS011;65174;48.138;21.002;2023-11-22T08:45:11;4.77;;;2.97;;
76125;SDS011;65174;48.138;21.002;2023-11-22T08:48:13;5.13;;;2.63;;
76125;SDS011;65174;48.138;21.002;2023-11-22T08:51:17;3.80;;;2.78;;
76125;SDS011;65174;48.138;21.002;2023-11-22T08:54:19;4.40;;;3.40;;
76125;SDS011;65174;48.138;21.002;2023-11-22T08:57:21;3.95;;;2.88;;
76125;SDS011;65174;48.138;21.002;2023-11-22T09:00:23;3.60;;;2.90;;
76125;SDS011;65174;48.138;21.002;2023-11-22T09:03:27;3.63;;;2.70;;
76125;SDS011;65174;48.138;21.002;2023-11-22T09:06:30;3.80;;;2.90;;
76125;SDS011;65174;48.138;21.002;2023-11-22T09:09:34;3.45;;;2.20;;
76125;SDS011;65174;48.138;21.002;2023-11-22T09:12:41;4.53;;;3.47;;
76125;SDS011;65174;48.138;21.002;2023-11-22T09:15:43;4.93;;;3.87;;
76125;SDS011;65174;48.138;21.002;2023-11-22T09:18:46;4.13;;;2.97;;
76125;SDS011;65174;48.138;21.002;2023-11-22T09:21:48;3.35;;;3.03;;
76125;SDS011;65174;48.138;21.002;2023-11-22T09:24:49;5.70;;;4.22;;
76125;SDS011;65174;48.138;21.002;2023-11-22T09:48:28;3.22;;;2.63;;
76125;SDS011;65174;48.138;21.002;2023-11-22T09:51:33;6.30;;;3.90;;
76125;SDS011;65174;48.138;21.002;2023-11-22T09:54:39;5.13;;;4.03;;
76125;SDS011;65174;48.138;21.002;2023-11-22T09:57:42;5.00;;;3.40;;
76125;SDS011;65174;48.138;21.002;2023-11-22T10:00:43;5.60;;;3.10;;
76125;SDS011;65174;48.138;21.002;2023-11-22T10:03:45;4.75;;;3.10;;
76125;SDS011;65174;48.138;21.002;2023-11-22T10:06:48;7.00;;;4.80;;
76125;SDS011;65174;48.138;21.002;2023-11-22T10:09:50;2.87;;;2.47;;
76125;SDS011;65174;48.138;21.002;2023-11-22T10:12:53;3.47;;;2.33;;
76125;SDS011;65174;48.138;21.002;2023-11-22T10:16:08;4.78;;;2.60;;
76125;SDS011;65174;48.138;21.002;2023-11-22T10:19:10;3.92;;;3.22;;
76125;SDS011;65174;48.138;21.002;2023-11-22T10:22:15;4.07;;;2.60;;
76125;SDS011;65174;48.138;21.002;2023-11-22T10:25:20;5.23;;;2.80;;
76125;SDS011;65174;48.138;21.002;2023-11-22T10:28:25;2.93;;;2.13;;
76125;SDS011;65174;48.138;21.002;2023-11-22T10:31:27;4.20;;;2.65;;
76125;SDS011;65174;48.138;21.002;2023-11-22T10:34:30;5.55;;;3.58;;
76125;SDS011;65174;48.138;21.002;2023-11-22T10:37:32;5.97;;;4.07;;
76125;SDS011;65174;48.138;21.002;2023-11-22T10:40:34;4.10;;;3.00;;
76125;SDS011;65174;48.138;21.002;2023-11-22T10:43:37;5.20;;;3.50;;
76125;SDS011;65174;48.138;21.002;2023-11-22T10:46:39;5.65;;;3.20;;
76125;SDS011;65174;48.138;21.002;2023-11-22T10:49:44;4.32;;;3.13;;
76125;SDS011;65174;48.138;21.002;2023-11-22T10:52:46;5.95;;;3.78;;
76125;SDS011;65174;48.138;21.002;2023-11-22T10:55:52;5.40;;;3.77;;
76125;SDS011;65174;48.138;21.002;2023-11-22T10:58:55;5.47;;;2.63;;
76125;SDS011;65174;48.138;21.002;2023-11-22T11:01:58;7.03;;;3.78;;
76125;SDS011;65174;48.138;21.002;2023-11-22T11:05:15;4.47;;;3.15;;
76125;SDS011;65174;48.138;21.002;2023-11-22T11:08:25;6.15;;;3.05;;
76125;SDS011;65174;48.138;21.002;2023-11-22T11:11:32;8.40;;;4.87;;
76125;SDS011;65174;48.138;21.002;2023-11-22T11:14:40;6.37;;;3.43;;
76125;SDS011;65174;48.138;21.002;2023-11-22T11:25:53;7.60;;;3.22;;
76125;SDS011;65174;48.138;21.002;2023-11-22T11:28:55;5.63;;;4.00;;
76125;SDS011;65174;48.138;21.002;2023-11-22T11:31:57;4.37;;;3.33;;
76125;SDS011;65174;48.138;21.002;2023-11-22T11:35:00;5.75;;;3.38;;
76125;SDS011;65174;48.138;21.002;2023-11-22T11:38:02;6.78;;;4.35;;
76125;SDS011;65174;48.138;21.002;2023-11-22T11:41:09;5.72;;;3.42;;
76125;SDS011;65174;48.138;21.002;2023-11-22T11:44:11;6.67;;;3.87;;
76125;SDS011;65174;48.138;21.002;2023-11-22T11:47:13;16.10;;;5.67;;
76125;SDS011;65174;48.138;21.002;2023-11-22T11:50:15;10.63;;;4.57;;
76125;SDS011;65174;48.138;21.002;2023-11-22T11:53:20;13.68;;;6.45;;
76125;SDS011;65174;48.138;21.002;2023-11-22T11:56:22;4.78;;;3.65;;
76125;SDS011;65174;48.138;21.002;2023-11-22T11:59:27;12.03;;;3.50;;
76125;SDS011;65174;48.138;21.002;2023-11-22T12:02:31;5.97;;;3.90;;
76125;SDS011;65174;48.138;21.002;2023-11-22T12:05:34;4.55;;;2.78;;
76125;SDS011;65174;48.138;21.002;2023-11-22T12:08:36;4.45;;;2.90;;
76125;SDS011;65174;48.138;21.002;2023-11-22T12:11:38;5.50;;;3.58;;
76125;SDS011;65174;48.138;21.002;2023-11-22T12:14:40;5.17;;;3.40;;
76125;SDS011;65174;48.138;21.002;2023-11-22T12:17:42;5.60;;;3.33;;
76125;SDS011;65174;48.138;21.002;2023-11-22T12:20:57;6.13;;;3.40;;
76125;SDS011;65174;48.138;21.002;2023-11-22T12:23:59;4.85;;;3.08;;
76125;SDS011;65174;48.138;21.002;2023-11-22T12:27:02;5.05;;;3.78;;
76125;SDS011;65174;48.138;21.002;2023-11-22T12:30:04;6.00;;;4.70;;
76125;SDS011;65174;48.138;21.002;2023-11-22T12:33:06;5.93;;;4.63;;
76125;SDS011;65174;48.138;21.002;2023-11-22T12:36:12;4.22;;;2.83;;
76125;SDS011;65174;48.138;21.002;2023-11-22T12:39:19;4.15;;;3.05;;
76125;SDS011;65174;48.138;21.002;2023-11-22T12:42:22;8.13;;;2.72;;
76125;SDS011;65174;48.138;21.002;2023-11-22T12:45:24;4.23;;;2.80;;
76125;SDS011;65174;48.138;21.002;2023-11-22T12:48:27;4.87;;;2.37;;
76125;SDS011;65174;48.138;21.002;2023-11-22T12:51:31;6.57;;;4.45;;
76125;SDS011;65174;48.138;21.002;2023-11-22T12:54:33;4.18;;;3.28;;
76125;SDS011;65174;48.138;21.002;2023-11-22T12:57:36;6.00;;;3.72;;
76125;SDS011;65174;48.138;21.002;2023-11-22T13:00:40;5.23;;;3.43;;
76125;SDS011;65174;48.138;21.002;2023-11-22T13:03:41;6.27;;;4.23;;
76125;SDS011;65174;48.138;21.002;2023-11-22T13:06:44;8.45;;;3.90;;
76125;SDS011;65174;48.138;21.002;2023-11-22T13:09:48;5.03;;;3.47;;
76125;SDS011;65174;48.138;21.002;2023-11-22T13:12:50;9.90;;;5.05;;
76125;SDS011;65174;48.138;21.002;2023-11-22T13:15:52;8.00;;;5.33;;
76125;SDS011;65174;48.138;21.002;2023-11-22T13:18:54;5.30;;;3.50;;
76125;SDS011;65174;48.138;21.002;2023-11-22T13:21:55;5.70;;;3.38;;
76125;SDS011;65174;48.138;21.002;2023-11-22T13:24:57;5.95;;;3.95;;
76125;SDS011;65174;48.138;21.002;2023-11-22T13:28:00;7.65;;;4.32;;
76125;SDS011;65174;48.138;21.002;2023-11-22T13:31:03;14.00;;;7.00;;
76125;SDS011;65174;48.138;21.002;2023-11-22T13:34:05;11.47;;;4.80;;
76125;SDS011;65174;48.138;21.002;2023-11-22T13:37:07;11.27;;;5.95;;
76125;SDS011;65174;48.138;21.002;2023-11-22T13:40:10;18.10;;;9.93;;
76125;SDS011;65174;48.138;21.002;2023-11-22T13:43:17;7.10;;;4.40;;
76125;SDS011;65174;48.138;21.002;2023-11-22T13:46:20;10.43;;;6.00;;
76125;SDS011;65174;48.138;21.002;2023-11-22T13:49:24;6.53;;;3.83;;
76125;SDS011;65174;48.138;21.002;2023-11-22T13:52:25;6.57;;;3.80;;
76125;SDS011;65174;48.138;21.002;2023-11-22T13:55:27;6.70;;;3.70;;
76125;SDS011;65174;48.138;21.002;2023-11-22T13:58:29;5.72;;;3.45;;
76125;SDS011;65174;48.138;21.002;2023-11-22T14:01:33;8.13;;;3.30;;
76125;SDS011;65174;48.138;21.002;2023-11-22T14:04:35;7.27;;;3.33;;
76125;SDS011;65174;48.138;21.002;2023-11-22T14:07:37;6.65;;;3.40;;
76125;SDS011;65174;48.138;21.002;2023-11-22T14:10:38;5.65;;;2.90;;
76125;SDS011;65174;48.138;21.002;2023-11-22T14:13:40;5.35;;;3.95;;
76125;SDS011;65174;48.138;21.002;2023-11-22T14:16:42;5.37;;;3.93;;
76125;SDS011;65174;48.138;21.002;2023-11-22T14:19:46;7.17;;;4.00;;
76125;SDS011;65174;48.138;21.002;2023-11-22T14:22:54;12.35;;;4.57;;
76125;SDS011;65174;48.138;21.002;2023-11-22T14:25:56;5.97;;;3.90;;
76125;SDS011;65174;48.138;21.002;2023-11-22T14:28:58;8.85;;;5.28;;
76125;SDS011;65174;48.138;21.002;2023-11-22T14:32:00;6.23;;;4.30;;
76125;SDS011;65174;48.138;21.002;2023-11-22T14:35:03;8.53;;;4.57;;
76125;SDS011;65174;48.138;21.002;2023-11-22T14:38:05;6.95;;;3.95;;
76125;SDS011;65174;48.138;21.002;2023-11-22T14:41:08;9.00;;;4.30;;
76125;SDS011;65174;48.138;21.002;2023-11-22T14:44:12;9.85;;;5.35;;
76125;SDS011;65174;48.138;21.002;2023-11-22T14:47:13;7.17;;;4.50;;
76125;SDS011;65174;48.138;21.002;2023-11-22T14:50:21;13.43;;;6.97;;
76125;SDS011;65174;48.138;21.002;2023-11-22T14:53:23;7.72;;;4.50;;
76125;SDS011;65174;48.138;21.002;2023-11-22T14:56:26;8.90;;;5.00;;
76125;SDS011;65174;48.138;21.002;2023-11-22T14:59:28;7.93;;;4.35;;
76125;SDS011;65174;48.138;21.002;2023-11-22T15:02:33;9.07;;;4.83;;
76125;SDS011;65174;48.138;21.002;2023-11-22T15:05:37;13.07;;;6.40;;
76125;SDS011;65174;48.138;21.002;2023-11-22T15:08:39;9.05;;;6.05;;
76125;SDS011;65174;48.138;21.002;2023-11-22T15:11:41;9.88;;;6.03;;
76125;SDS011;65174;48.138;21.002;2023-11-22T15:14:43;5.38;;;3.92;;
76125;SDS011;65174;48.138;21.002;2023-11-22T15:17:45;12.10;;;6.47;;
76125;SDS011;65174;48.138;21.002;2023-11-22T15:20:47;15.47;;;6.13;;
76125;SDS011;65174;48.138;21.002;2023-11-22T15:23:49;11.40;;;5.57;;
76125;SDS011;65174;48.138;21.002;2023-11-22T15:26:51;19.38;;;6.20;;
76125;SDS011;65174;48.138;21.002;2023-11-22T15:29:53;11.25;;;4.88;;
76125;SDS011;65174;48.138;21.002;2023-11-22T15:32:55;10.50;;;5.70;;
76125;SDS011;65174;48.138;21.002;2023-11-22T15:35:57;10.63;;;5.83;;
76125;SDS011;65174;48.138;21.002;2023-11-22T15:38:59;10.15;;;6.30;;
76125;SDS011;65174;48.138;21.002;2023-11-22T15:42:02;15.13;;;7.22;;
76125;SDS011;65174;48.138;21.002;2023-11-22T15:45:07;9.10;;;5.70;;
76125;SDS011;65174;48.138;21.002;2023-11-22T15:48:09;9.30;;;6.03;;
76125;SDS011;65174;48.138;21.002;2023-11-22T15:51:11;10.70;;;5.67;;
76125;SDS011;65174;48.138;21.002;2023-11-22T15:54:13;7.07;;;4.38;;
76125;SDS011;65174;48.138;21.002;2023-11-22T15:57:15;7.25;;;5.28;;
76125;SDS011;65174;48.138;21.002;2023-11-22T16:00:16;7.57;;;4.55;;
76125;SDS011;65174;48.138;21.002;2023-11-22T16:03:18;7.33;;;4.83;;
76125;SDS011;65174;48.138;21.002;2023-11-22T16:06:21;7.77;;;5.10;;
76125;SDS011;65174;48.138;21.002;2023-11-22T16:09:24;6.40;;;4.10;;
76125;SDS011;65174;48.138;21.002;2023-11-22T16:12:28;10.38;;;5.93;;
76125;SDS011;65174;48.138;21.002;2023-11-22T16:15:33;8.93;;;4.18;;
76125;SDS011;65174;48.138;21.002;2023-11-22T16:18:35;6.10;;;3.60;;
76125;SDS011;65174;48.138;21.002;2023-11-22T16:21:39;10.33;;;6.03;;
76125;SDS011;65174;48.138;21.002;2023-11-22T16:24:41;12.43;;;6.55;;
76125;SDS011;65174;48.138;21.002;2023-11-22T16:27:43;6.85;;;4.53;;
76125;SDS011;65174;48.138;21.002;2023-11-22T16:30:45;8.88;;;6.25;;
76125;SDS011;65174;48.138;21.002;2023-11-22T16:33:47;10.50;;;5.13;;
76125;SDS011;65174;48.138;21.002;2023-11-22T16:36:51;7.00;;;4.87;;
76125;SDS011;65174;48.138;21.002;2023-11-22T16:39:53;9.75;;;5.38;;
76125;SDS011;65174;48.138;21.002;2023-11-22T16:42:57;10.93;;;5.93;;
76125;SDS011;65174;48.138;21.002;2023-11-22T16:45:59;6.30;;;4.40;;
76125;SDS011;65174;48.138;21.002;2023-11-22T16:49:00;6.07;;;3.47;;
76125;SDS011;65174;48.138;21.002;2023-11-22T16:52:02;6.67;;;4.20;;
76125;SDS011;65174;48.138;21.002;2023-11-22T16:55:05;9.40;;;3.55;;
76125;SDS011;65174;48.138;21.002;2023-11-22T16:58:08;9.65;;;5.38;;
76125;SDS011;65174;48.138;21.002;2023-11-22T17:01:10;10.40;;;4.70;;
76125;SDS011;65174;48.138;21.002;2023-11-22T17:04:12;8.17;;;5.07;;
76125;SDS011;65174;48.138;21.002;2023-11-22T17:07:14;8.57;;;5.17;;
76125;SDS011;65174;48.138;21.002;2023-11-22T17:10:16;6.25;;;3.70;;
76125;SDS011;65174;48.138;21.002;2023-11-22T17:13:18;7.70;;;4.95;;
76125;SDS011;65174;48.138;21.002;2023-11-22T17:16:20;9.93;;;6.22;;
76125;SDS011;65174;48.138;21.002;2023-11-22T17:19:23;4.60;;;2.73;;
76125;SDS011;65174;48.138;21.002;2023-11-22T17:22:25;6.60;;;4.13;;
76125;SDS011;65174;48.138;21.002;2023-11-22T17:25:29;10.90;;;6.25;;
76125;SDS011;65174;48.138;21.002;2023-11-22T17:28:31;12.07;;;7.10;;
76125;SDS011;65174;48.138;21.002;2023-11-22T17:31:33;10.50;;;5.10;;
76125;SDS011;65174;48.138;21.002;2023-11-22T17:34:35;12.43;;;5.97;;
76125;SDS011;65174;48.138;21.002;2023-11-22T17:37:37;12.37;;;7.10;;
76125;SDS011;65174;48.138;21.002;2023-11-22T17:40:39;9.85;;;5.45;;
76125;SDS011;65174;48.138;21.002;2023-11-22T17:43:40;12.60;;;6.65;;
76125;SDS011;65174;48.138;21.002;2023-11-22T17:46:43;10.40;;;6.28;;
76125;SDS011;65174;48.138;21.002;2023-11-22T17:49:45;9.93;;;6.43;;
76125;SDS011;65174;48.138;21.002;2023-11-22T17:52:48;8.03;;;4.43;;
76125;SDS011;65174;48.138;21.002;2023-11-22T17:55:50;9.35;;;5.10;;
76125;SDS011;65174;48.138;21.002;2023-11-22T17:58:52;7.82;;;4.60;;
76125;SDS011;65174;48.138;21.002;2023-11-22T18:01:53;12.05;;;7.72;;
76125;SDS011;65174;48.138;21.002;2023-11-22T18:04:55;14.40;;;8.90;;
76125;SDS011;65174;48.138;21.002;2023-11-22T18:07:58;11.27;;;6.87;;
76125;SDS011;65174;48.138;21.002;2023-11-22T18:11:01;7.15;;;4.75;;
76125;SDS011;65174;48.138;21.002;2023-11-22T18:14:02;7.90;;;4.88;;
76125;SDS011;65174;48.138;21.002;2023-11-22T18:17:04;9.95;;;6.00;;
76125;SDS011;65174;48.138;21.002;2023-11-22T18:20:07;14.63;;;4.33;;
76125;SDS011;65174;48.138;21.002;2023-11-22T18:23:11;5.97;;;4.27;;
76125;SDS011;65174;48.138;21.002;2023-11-22T18:26:14;9.93;;;5.32;;